sensor_id;sensor_type;location;lat;lon;timestamp;P1;durP1;ratioP1;P2;durP2;ratioP2
72590;SDS011;60625;51.212;5.952;2022-10-19T00:04:43;13.10;;;3.70;;
72590;SDS011;60625;51.212;5.952;2022-10-19T00:09:44;8.70;;;3.20;;
72590;SDS011;60625;51.212;5.952;2022-10-19T00:14:44;9.20;;;3.50;;
72590;SDS011;60625;51.212;5.952;2022-10-19T00:19:45;14.30;;;4.20;;
72590;SDS011;60625;51.212;5.952;2022-10-19T00:24:45;8.00;;;3.90;;
72590;SDS011;60625;51.212;5.952;2022-10-19T00:29:45;12.30;;;3.80;;
72590;SDS011;60625;51.212;5.952;2022-10-19T00:34:46;9.40;;;4.00;;
72590;SDS011;60625;51.212;5.952;2022-10-19T00:39:46;8.70;;;3.90;;
72590;SDS011;60625;51.212;5.952;2022-10-19T00:49:47;10.90;;;3.50;;
72590;SDS011;60625;51.212;5.952;2022-10-19T00:54:48;12.90;;;3.50;;
72590;SDS011;60625;51.212;5.952;2022-10-19T00:59:50;10.30;;;3.90;;
72590;SDS011;60625;51.212;5.952;2022-10-19T01:04:51;11.20;;;4.20;;
72590;SDS011;60625;51.212;5.952;2022-10-19T01:09:53;19.30;;;4.20;;
72590;SDS011;60625;51.212;5.952;2022-10-19T01:15:39;14.80;;;3.60;;
72590;SDS011;60625;51.212;5.952;2022-10-19T01:36:42;10.20;;;3.90;;
72590;SDS011;60625;51.212;5.952;2022-10-19T01:41:55;10.80;;;3.80;;
72590;SDS011;60625;51.212;5.952;2022-10-19T01:47:03;14.80;;;4.10;;
72590;SDS011;60625;51.212;5.952;2022-10-19T01:52:07;8.60;;;3.20;;
72590;SDS011;60625;51.212;5.952;2022-10-19T01:57:11;21.90;;;4.70;;
72590;SDS011;60625;51.212;5.952;2022-10-19T02:02:15;9.20;;;4.10;;
72590;SDS011;60625;51.212;5.952;2022-10-19T02:07:19;13.30;;;3.60;;
72590;SDS011;60625;51.212;5.952;2022-10-19T02:12:23;14.20;;;3.90;;
72590;SDS011;60625;51.212;5.952;2022-10-19T02:17:27;13.30;;;3.90;;
72590;SDS011;60625;51.212;5.952;2022-10-19T02:22:31;12.40;;;4.30;;
72590;SDS011;60625;51.212;5.952;2022-10-19T02:27:32;16.20;;;4.60;;
72590;SDS011;60625;51.212;5.952;2022-10-19T02:32:33;11.30;;;3.80;;
72590;SDS011;60625;51.212;5.952;2022-10-19T02:37:33;18.30;;;4.40;;
72590;SDS011;60625;51.212;5.952;2022-10-19T02:42:43;13.40;;;5.90;;
72590;SDS011;60625;51.212;5.952;2022-10-19T02:47:51;15.90;;;4.80;;
72590;SDS011;60625;51.212;5.952;2022-10-19T02:53:03;11.10;;;4.60;;
72590;SDS011;60625;51.212;5.952;2022-10-19T02:58:04;8.20;;;3.80;;
72590;SDS011;60625;51.212;5.952;2022-10-19T03:03:04;11.10;;;4.00;;
72590;SDS011;60625;51.212;5.952;2022-10-19T03:08:05;14.60;;;4.00;;
72590;SDS011;60625;51.212;5.952;2022-10-19T03:13:05;8.40;;;3.80;;
72590;SDS011;60625;51.212;5.952;2022-10-19T03:18:06;7.30;;;3.80;;
72590;SDS011;60625;51.212;5.952;2022-10-19T03:23:06;10.10;;;3.90;;
72590;SDS011;60625;51.212;5.952;2022-10-19T03:28:07;12.10;;;5.80;;
72590;SDS011;60625;51.212;5.952;2022-10-19T03:33:07;11.00;;;5.30;;
72590;SDS011;60625;51.212;5.952;2022-10-19T03:38:07;10.10;;;5.20;;
72590;SDS011;60625;51.212;5.952;2022-10-19T03:43:08;11.30;;;5.10;;
72590;SDS011;60625;51.212;5.952;2022-10-19T03:48:08;10.30;;;4.80;;
72590;SDS011;60625;51.212;5.952;2022-10-19T03:53:09;16.50;;;5.40;;
72590;SDS011;60625;51.212;5.952;2022-10-19T03:58:09;15.90;;;6.50;;
72590;SDS011;60625;51.212;5.952;2022-10-19T04:03:09;14.10;;;5.60;;
72590;SDS011;60625;51.212;5.952;2022-10-19T04:08:10;15.70;;;5.80;;
72590;SDS011;60625;51.212;5.952;2022-10-19T04:13:11;18.80;;;6.10;;
72590;SDS011;60625;51.212;5.952;2022-10-19T04:18:11;16.20;;;5.80;;
72590;SDS011;60625;51.212;5.952;2022-10-19T04:23:12;19.10;;;6.90;;
72590;SDS011;60625;51.212;5.952;2022-10-19T04:28:12;18.10;;;7.00;;
72590;SDS011;60625;51.212;5.952;2022-10-19T04:33:12;16.70;;;6.60;;
72590;SDS011;60625;51.212;5.952;2022-10-19T04:38:13;18.80;;;6.20;;
72590;SDS011;60625;51.212;5.952;2022-10-19T04:43:13;14.80;;;6.00;;
72590;SDS011;60625;51.212;5.952;2022-10-19T04:48:14;20.20;;;7.90;;
72590;SDS011;60625;51.212;5.952;2022-10-19T04:53:14;23.10;;;8.40;;
72590;SDS011;60625;51.212;5.952;2022-10-19T04:58:15;19.00;;;7.90;;
72590;SDS011;60625;51.212;5.952;2022-10-19T05:03:15;17.60;;;8.10;;
72590;SDS011;60625;51.212;5.952;2022-10-19T05:08:16;21.20;;;8.80;;
72590;SDS011;60625;51.212;5.952;2022-10-19T05:13:16;19.40;;;8.70;;
72590;SDS011;60625;51.212;5.952;2022-10-19T05:18:17;15.60;;;9.20;;
72590;SDS011;60625;51.212;5.952;2022-10-19T05:23:17;19.90;;;8.70;;
72590;SDS011;60625;51.212;5.952;2022-10-19T05:28:17;19.30;;;8.90;;
72590;SDS011;60625;51.212;5.952;2022-10-19T05:33:18;13.40;;;7.90;;
72590;SDS011;60625;51.212;5.952;2022-10-19T05:38:18;18.10;;;8.30;;
72590;SDS011;60625;51.212;5.952;2022-10-19T05:43:19;17.50;;;8.10;;
72590;SDS011;60625;51.212;5.952;2022-10-19T05:48:19;18.40;;;8.20;;
72590;SDS011;60625;51.212;5.952;2022-10-19T05:53:20;25.90;;;10.30;;
72590;SDS011;60625;51.212;5.952;2022-10-19T05:58:20;26.70;;;10.10;;
72590;SDS011;60625;51.212;5.952;2022-10-19T06:03:22;21.70;;;10.40;;
72590;SDS011;60625;51.212;5.952;2022-10-19T06:08:23;24.40;;;10.20;;
72590;SDS011;60625;51.212;5.952;2022-10-19T06:13:24;20.40;;;9.40;;
72590;SDS011;60625;51.212;5.952;2022-10-19T06:18:24;25.30;;;10.10;;
72590;SDS011;60625;51.212;5.952;2022-10-19T06:23:25;21.50;;;9.80;;
72590;SDS011;60625;51.212;5.952;2022-10-19T06:28:25;18.10;;;9.60;;
72590;SDS011;60625;51.212;5.952;2022-10-19T06:33:27;23.10;;;10.20;;
72590;SDS011;60625;51.212;5.952;2022-10-19T06:38:29;29.30;;;10.20;;
72590;SDS011;60625;51.212;5.952;2022-10-19T06:43:29;29.70;;;10.50;;
72590;SDS011;60625;51.212;5.952;2022-10-19T06:48:30;24.60;;;10.40;;
72590;SDS011;60625;51.212;5.952;2022-10-19T06:53:30;24.30;;;10.30;;
72590;SDS011;60625;51.212;5.952;2022-10-19T06:58:34;23.00;;;10.50;;
72590;SDS011;60625;51.212;5.952;2022-10-19T07:03:36;22.30;;;11.10;;
72590;SDS011;60625;51.212;5.952;2022-10-19T07:08:38;29.80;;;12.20;;
72590;SDS011;60625;51.212;5.952;2022-10-19T07:13:39;31.40;;;13.30;;
72590;SDS011;60625;51.212;5.952;2022-10-19T07:18:40;24.40;;;11.90;;
72590;SDS011;60625;51.212;5.952;2022-10-19T07:23:43;28.50;;;12.20;;
72590;SDS011;60625;51.212;5.952;2022-10-19T07:28:46;32.70;;;13.90;;
72590;SDS011;60625;51.212;5.952;2022-10-19T07:33:55;30.80;;;14.10;;
72590;SDS011;60625;51.212;5.952;2022-10-19T07:38:57;29.70;;;13.10;;
72590;SDS011;60625;51.212;5.952;2022-10-19T07:43:58;33.60;;;14.70;;
72590;SDS011;60625;51.212;5.952;2022-10-19T07:49:00;28.10;;;13.10;;
72590;SDS011;60625;51.212;5.952;2022-10-19T07:54:01;25.60;;;12.00;;
72590;SDS011;60625;51.212;5.952;2022-10-19T07:59:02;28.20;;;12.20;;
72590;SDS011;60625;51.212;5.952;2022-10-19T08:04:04;31.90;;;11.90;;
72590;SDS011;60625;51.212;5.952;2022-10-19T08:09:04;29.60;;;11.60;;
72590;SDS011;60625;51.212;5.952;2022-10-19T08:14:05;21.10;;;10.30;;
72590;SDS011;60625;51.212;5.952;2022-10-19T08:19:11;41.90;;;11.70;;
72590;SDS011;60625;51.212;5.952;2022-10-19T08:24:15;27.00;;;10.20;;
72590;SDS011;60625;51.212;5.952;2022-10-19T08:29:19;23.60;;;9.50;;
72590;SDS011;60625;51.212;5.952;2022-10-19T08:34:21;23.90;;;9.80;;
72590;SDS011;60625;51.212;5.952;2022-10-19T08:39:21;27.40;;;10.70;;
72590;SDS011;60625;51.212;5.952;2022-10-19T08:50:15;21.40;;;8.50;;
72590;SDS011;60625;51.212;5.952;2022-10-19T08:55:28;19.50;;;8.40;;
72590;SDS011;60625;51.212;5.952;2022-10-19T09:00:41;17.30;;;8.90;;
72590;SDS011;60625;51.212;5.952;2022-10-19T09:11:00;20.60;;;7.90;;
72590;SDS011;60625;51.212;5.952;2022-10-19T09:16:02;19.00;;;8.50;;
72590;SDS011;60625;51.212;5.952;2022-10-19T09:26:28;17.80;;;7.50;;
72590;SDS011;60625;51.212;5.952;2022-10-19T09:31:37;23.50;;;7.80;;
72590;SDS011;60625;51.212;5.952;2022-10-19T09:36:42;20.80;;;8.40;;
72590;SDS011;60625;51.212;5.952;2022-10-19T09:41:55;21.00;;;7.50;;
72590;SDS011;60625;51.212;5.952;2022-10-19T09:47:20;17.90;;;7.70;;
72590;SDS011;60625;51.212;5.952;2022-10-19T09:52:36;18.50;;;7.40;;
72590;SDS011;60625;51.212;5.952;2022-10-19T09:57:49;16.60;;;7.30;;
72590;SDS011;60625;51.212;5.952;2022-10-19T10:02:56;18.30;;;6.80;;
72590;SDS011;60625;51.212;5.952;2022-10-19T10:07:57;16.30;;;7.90;;
72590;SDS011;60625;51.212;5.952;2022-10-19T10:12:58;16.30;;;6.80;;
72590;SDS011;60625;51.212;5.952;2022-10-19T10:18:00;14.70;;;6.70;;
72590;SDS011;60625;51.212;5.952;2022-10-19T10:23:03;17.50;;;7.30;;
72590;SDS011;60625;51.212;5.952;2022-10-19T10:28:19;16.60;;;6.60;;
72590;SDS011;60625;51.212;5.952;2022-10-19T10:33:23;14.70;;;6.80;;
72590;SDS011;60625;51.212;5.952;2022-10-19T10:38:30;17.40;;;7.60;;
72590;SDS011;60625;51.212;5.952;2022-10-19T10:43:37;16.50;;;6.90;;
72590;SDS011;60625;51.212;5.952;2022-10-19T10:48:57;17.80;;;7.30;;
72590;SDS011;60625;51.212;5.952;2022-10-19T10:59:24;16.60;;;7.40;;
72590;SDS011;60625;51.212;5.952;2022-10-19T11:04:31;13.30;;;6.50;;
72590;SDS011;60625;51.212;5.952;2022-10-19T11:09:41;20.30;;;7.20;;
72590;SDS011;60625;51.212;5.952;2022-10-19T11:14:57;19.10;;;6.60;;
72590;SDS011;60625;51.212;5.952;2022-10-19T11:20:05;16.30;;;6.50;;
72590;SDS011;60625;51.212;5.952;2022-10-19T11:25:21;15.70;;;6.70;;
72590;SDS011;60625;51.212;5.952;2022-10-19T11:30:24;15.40;;;6.20;;
72590;SDS011;60625;51.212;5.952;2022-10-19T11:41:24;13.20;;;6.20;;
72590;SDS011;60625;51.212;5.952;2022-10-19T11:46:38;15.50;;;5.70;;
72590;SDS011;60625;51.212;5.952;2022-10-19T11:52:09;16.40;;;5.90;;
72590;SDS011;60625;51.212;5.952;2022-10-19T11:57:22;10.50;;;4.20;;
72590;SDS011;60625;51.212;5.952;2022-10-19T12:02:41;12.00;;;4.60;;
72590;SDS011;60625;51.212;5.952;2022-10-19T12:07:55;10.80;;;3.20;;
72590;SDS011;60625;51.212;5.952;2022-10-19T12:13:22;8.00;;;3.40;;
72590;SDS011;60625;51.212;5.952;2022-10-19T12:18:35;8.30;;;3.10;;
72590;SDS011;60625;51.212;5.952;2022-10-19T12:23:49;8.30;;;2.60;;
72590;SDS011;60625;51.212;5.952;2022-10-19T12:28:56;9.10;;;2.50;;
72590;SDS011;60625;51.212;5.952;2022-10-19T12:34:24;8.60;;;3.00;;
72590;SDS011;60625;51.212;5.952;2022-10-19T12:39:36;12.20;;;2.80;;
72590;SDS011;60625;51.212;5.952;2022-10-19T13:01:11;6.70;;;2.00;;
72590;SDS011;60625;51.212;5.952;2022-10-19T13:06:28;11.60;;;2.50;;
72590;SDS011;60625;51.212;5.952;2022-10-19T13:11:31;8.20;;;2.10;;
72590;SDS011;60625;51.212;5.952;2022-10-19T13:21:50;6.70;;;2.00;;
72590;SDS011;60625;51.212;5.952;2022-10-19T13:37:38;5.90;;;1.90;;
72590;SDS011;60625;51.212;5.952;2022-10-19T13:42:39;7.50;;;1.90;;
72590;SDS011;60625;51.212;5.952;2022-10-19T13:47:42;7.40;;;2.40;;
72590;SDS011;60625;51.212;5.952;2022-10-19T14:10:09;7.40;;;2.00;;
72590;SDS011;60625;51.212;5.952;2022-10-19T14:15:26;6.80;;;1.90;;
72590;SDS011;60625;51.212;5.952;2022-10-19T14:20:34;7.70;;;1.80;;
72590;SDS011;60625;51.212;5.952;2022-10-19T14:25:36;7.00;;;1.80;;
72590;SDS011;60625;51.212;5.952;2022-10-19T14:30:36;6.00;;;1.70;;
72590;SDS011;60625;51.212;5.952;2022-10-19T14:35:39;6.70;;;1.30;;
72590;SDS011;60625;51.212;5.952;2022-10-19T14:40:41;5.20;;;1.30;;
72590;SDS011;60625;51.212;5.952;2022-10-19T14:45:41;8.20;;;1.40;;
72590;SDS011;60625;51.212;5.952;2022-10-19T14:50:51;6.30;;;1.60;;
72590;SDS011;60625;51.212;5.952;2022-10-19T14:55:56;5.60;;;1.20;;
72590;SDS011;60625;51.212;5.952;2022-10-19T15:01:01;8.00;;;1.80;;
72590;SDS011;60625;51.212;5.952;2022-10-19T15:06:04;3.80;;;1.10;;
72590;SDS011;60625;51.212;5.952;2022-10-19T15:11:06;4.80;;;1.40;;
72590;SDS011;60625;51.212;5.952;2022-10-19T15:16:31;5.50;;;1.20;;
72590;SDS011;60625;51.212;5.952;2022-10-19T15:21:41;6.20;;;1.60;;
72590;SDS011;60625;51.212;5.952;2022-10-19T15:26:49;7.10;;;1.30;;
72590;SDS011;60625;51.212;5.952;2022-10-19T15:31:51;7.40;;;1.80;;
72590;SDS011;60625;51.212;5.952;2022-10-19T15:36:59;7.20;;;1.90;;
72590;SDS011;60625;51.212;5.952;2022-10-19T15:42:37;4.10;;;1.50;;
72590;SDS011;60625;51.212;5.952;2022-10-19T15:53:09;9.20;;;2.30;;
72590;SDS011;60625;51.212;5.952;2022-10-19T15:58:11;12.10;;;1.80;;
72590;SDS011;60625;51.212;5.952;2022-10-19T16:03:12;10.20;;;1.50;;
72590;SDS011;60625;51.212;5.952;2022-10-19T16:08:13;8.40;;;1.80;;
72590;SDS011;60625;51.212;5.952;2022-10-19T16:13:13;7.90;;;2.00;;
72590;SDS011;60625;51.212;5.952;2022-10-19T16:18:14;8.10;;;1.50;;
72590;SDS011;60625;51.212;5.952;2022-10-19T16:23:14;5.10;;;1.60;;
72590;SDS011;60625;51.212;5.952;2022-10-19T16:28:15;9.10;;;1.70;;
72590;SDS011;60625;51.212;5.952;2022-10-19T16:33:16;8.30;;;2.00;;
72590;SDS011;60625;51.212;5.952;2022-10-19T16:38:16;7.00;;;1.70;;
72590;SDS011;60625;51.212;5.952;2022-10-19T16:43:17;6.30;;;1.90;;
72590;SDS011;60625;51.212;5.952;2022-10-19T16:48:18;5.80;;;2.40;;
72590;SDS011;60625;51.212;5.952;2022-10-19T16:53:18;9.10;;;2.00;;
72590;SDS011;60625;51.212;5.952;2022-10-19T16:58:18;9.00;;;2.10;;
72590;SDS011;60625;51.212;5.952;2022-10-19T17:03:19;6.00;;;1.90;;
72590;SDS011;60625;51.212;5.952;2022-10-19T17:08:19;8.70;;;2.10;;
72590;SDS011;60625;51.212;5.952;2022-10-19T17:13:20;7.70;;;2.00;;
72590;SDS011;60625;51.212;5.952;2022-10-19T17:18:20;6.50;;;1.80;;
72590;SDS011;60625;51.212;5.952;2022-10-19T17:23:20;7.70;;;2.20;;
72590;SDS011;60625;51.212;5.952;2022-10-19T17:28:21;6.60;;;2.00;;
72590;SDS011;60625;51.212;5.952;2022-10-19T17:33:22;9.60;;;2.30;;
72590;SDS011;60625;51.212;5.952;2022-10-19T17:38:23;8.60;;;2.40;;
72590;SDS011;60625;51.212;5.952;2022-10-19T17:43:24;9.10;;;2.70;;
72590;SDS011;60625;51.212;5.952;2022-10-19T17:48:24;9.20;;;2.40;;
72590;SDS011;60625;51.212;5.952;2022-10-19T17:53:25;7.40;;;2.40;;
72590;SDS011;60625;51.212;5.952;2022-10-19T17:58:26;7.70;;;2.30;;
72590;SDS011;60625;51.212;5.952;2022-10-19T18:03:29;9.30;;;2.70;;
72590;SDS011;60625;51.212;5.952;2022-10-19T18:08:32;7.80;;;2.80;;
72590;SDS011;60625;51.212;5.952;2022-10-19T18:13:35;13.30;;;2.80;;
72590;SDS011;60625;51.212;5.952;2022-10-19T18:18:39;9.50;;;2.20;;
72590;SDS011;60625;51.212;5.952;2022-10-19T18:23:41;10.50;;;2.80;;
72590;SDS011;60625;51.212;5.952;2022-10-19T18:28:42;11.20;;;3.00;;
72590;SDS011;60625;51.212;5.952;2022-10-19T18:33:43;7.50;;;2.50;;
72590;SDS011;60625;51.212;5.952;2022-10-19T18:38:43;7.30;;;2.70;;
72590;SDS011;60625;51.212;5.952;2022-10-19T18:43:49;11.20;;;2.80;;
72590;SDS011;60625;51.212;5.952;2022-10-19T18:48:52;12.60;;;3.40;;
72590;SDS011;60625;51.212;5.952;2022-10-19T18:53:53;9.00;;;3.20;;
72590;SDS011;60625;51.212;5.952;2022-10-19T18:58:55;6.80;;;2.90;;
72590;SDS011;60625;51.212;5.952;2022-10-19T19:04:03;6.40;;;3.00;;
72590;SDS011;60625;51.212;5.952;2022-10-19T19:09:08;15.60;;;3.20;;
72590;SDS011;60625;51.212;5.952;2022-10-19T19:14:13;6.30;;;2.50;;
72590;SDS011;60625;51.212;5.952;2022-10-19T19:19:16;9.10;;;2.90;;
72590;SDS011;60625;51.212;5.952;2022-10-19T19:24:19;13.50;;;3.30;;
72590;SDS011;60625;51.212;5.952;2022-10-19T19:29:22;12.70;;;3.20;;
72590;SDS011;60625;51.212;5.952;2022-10-19T19:34:23;13.20;;;3.60;;
72590;SDS011;60625;51.212;5.952;2022-10-19T19:39:23;11.00;;;3.80;;
72590;SDS011;60625;51.212;5.952;2022-10-19T19:44:24;10.60;;;3.50;;
72590;SDS011;60625;51.212;5.952;2022-10-19T19:49:28;13.10;;;3.70;;
72590;SDS011;60625;51.212;5.952;2022-10-19T19:54:29;7.60;;;3.60;;
72590;SDS011;60625;51.212;5.952;2022-10-19T19:59:29;14.30;;;3.90;;
72590;SDS011;60625;51.212;5.952;2022-10-19T20:04:30;9.80;;;3.90;;
72590;SDS011;60625;51.212;5.952;2022-10-19T20:09:30;13.10;;;4.10;;
72590;SDS011;60625;51.212;5.952;2022-10-19T20:14:31;12.00;;;4.20;;
72590;SDS011;60625;51.212;5.952;2022-10-19T20:19:31;8.40;;;4.30;;
72590;SDS011;60625;51.212;5.952;2022-10-19T20:24:35;15.30;;;4.80;;
72590;SDS011;60625;51.212;5.952;2022-10-19T20:29:35;10.80;;;4.30;;
72590;SDS011;60625;51.212;5.952;2022-10-19T20:34:36;13.90;;;4.50;;
72590;SDS011;60625;51.212;5.952;2022-10-19T20:39:36;12.30;;;5.10;;
72590;SDS011;60625;51.212;5.952;2022-10-19T20:44:37;11.90;;;4.80;;
72590;SDS011;60625;51.212;5.952;2022-10-19T20:49:38;11.00;;;4.90;;
72590;SDS011;60625;51.212;5.952;2022-10-19T20:54:39;14.90;;;6.10;;
72590;SDS011;60625;51.212;5.952;2022-10-19T20:59:40;12.00;;;6.10;;
72590;SDS011;60625;51.212;5.952;2022-10-19T21:04:43;10.60;;;6.30;;
72590;SDS011;60625;51.212;5.952;2022-10-19T21:09:43;14.10;;;7.50;;
72590;SDS011;60625;51.212;5.952;2022-10-19T21:14:44;12.30;;;6.80;;
72590;SDS011;60625;51.212;5.952;2022-10-19T21:19:44;16.10;;;6.10;;
72590;SDS011;60625;51.212;5.952;2022-10-19T21:24:44;17.80;;;6.60;;
72590;SDS011;60625;51.212;5.952;2022-10-19T21:29:45;15.50;;;6.80;;
72590;SDS011;60625;51.212;5.952;2022-10-19T21:34:46;14.00;;;6.20;;
72590;SDS011;60625;51.212;5.952;2022-10-19T21:39:46;10.00;;;5.70;;
72590;SDS011;60625;51.212;5.952;2022-10-19T21:44:46;13.00;;;5.70;;
72590;SDS011;60625;51.212;5.952;2022-10-19T21:49:47;13.10;;;5.80;;
72590;SDS011;60625;51.212;5.952;2022-10-19T21:54:47;13.80;;;5.70;;
72590;SDS011;60625;51.212;5.952;2022-10-19T21:59:47;13.70;;;5.00;;
72590;SDS011;60625;51.212;5.952;2022-10-19T22:04:49;8.90;;;5.40;;
72590;SDS011;60625;51.212;5.952;2022-10-19T22:09:49;11.70;;;5.30;;
72590;SDS011;60625;51.212;5.952;2022-10-19T22:14:49;12.60;;;5.50;;
72590;SDS011;60625;51.212;5.952;2022-10-19T22:19:50;11.80;;;4.40;;
72590;SDS011;60625;51.212;5.952;2022-10-19T22:24:50;13.30;;;5.60;;
72590;SDS011;60625;51.212;5.952;2022-10-19T22:29:51;11.70;;;5.60;;
72590;SDS011;60625;51.212;5.952;2022-10-19T22:34:52;14.70;;;6.40;;
72590;SDS011;60625;51.212;5.952;2022-10-19T22:39:52;13.30;;;6.00;;
72590;SDS011;60625;51.212;5.952;2022-10-19T22:44:52;14.10;;;6.60;;
72590;SDS011;60625;51.212;5.952;2022-10-19T22:49:53;11.90;;;6.10;;
72590;SDS011;60625;51.212;5.952;2022-10-19T22:54:53;12.60;;;6.40;;
72590;SDS011;60625;51.212;5.952;2022-10-19T22:59:54;13.70;;;7.20;;
72590;SDS011;60625;51.212;5.952;2022-10-19T23:04:54;11.20;;;6.50;;
72590;SDS011;60625;51.212;5.952;2022-10-19T23:09:55;13.90;;;6.80;;
72590;SDS011;60625;51.212;5.952;2022-10-19T23:14:55;11.00;;;6.10;;
72590;SDS011;60625;51.212;5.952;2022-10-19T23:19:56;12.30;;;7.00;;
72590;SDS011;60625;51.212;5.952;2022-10-19T23:24:56;14.10;;;6.90;;
72590;SDS011;60625;51.212;5.952;2022-10-19T23:29:56;13.40;;;6.80;;
72590;SDS011;60625;51.212;5.952;2022-10-19T23:34:58;12.30;;;7.10;;
72590;SDS011;60625;51.212;5.952;2022-10-19T23:39:59;13.20;;;6.50;;
72590;SDS011;60625;51.212;5.952;2022-10-19T23:44:59;13.40;;;8.20;;
72590;SDS011;60625;51.212;5.952;2022-10-19T23:50:00;17.70;;;7.60;;
72590;SDS011;60625;51.212;5.952;2022-10-19T23:55:00;14.80;;;8.70;;
